sensor_id;sensor_type;location;lat;lon;timestamp;P1;durP1;ratioP1;P2;durP2;ratioP2
75148;SDS011;63724;47.470;19.166;2023-05-10T00:00:48;3.13;;;1.60;;
75148;SDS011;63724;47.470;19.166;2023-05-10T00:03:50;2.85;;;1.80;;
75148;SDS011;63724;47.470;19.166;2023-05-10T00:06:53;3.37;;;1.70;;
75148;SDS011;63724;47.470;19.166;2023-05-10T00:09:55;3.50;;;1.70;;
75148;SDS011;63724;47.470;19.166;2023-05-10T00:12:57;2.25;;;1.90;;
75148;SDS011;63724;47.470;19.166;2023-05-10T00:16:00;2.28;;;1.73;;
75148;SDS011;63724;47.470;19.166;2023-05-10T00:19:02;3.55;;;1.63;;
75148;SDS011;63724;47.470;19.166;2023-05-10T00:22:04;2.07;;;1.87;;
75148;SDS011;63724;47.470;19.166;2023-05-10T00:25:07;3.15;;;2.00;;
75148;SDS011;63724;47.470;19.166;2023-05-10T00:28:10;3.78;;;1.60;;
75148;SDS011;63724;47.470;19.166;2023-05-10T00:31:12;2.33;;;1.80;;
75148;SDS011;63724;47.470;19.166;2023-05-10T00:34:16;2.25;;;2.03;;
75148;SDS011;63724;47.470;19.166;2023-05-10T00:37:19;3.40;;;1.60;;
75148;SDS011;63724;47.470;19.166;2023-05-10T00:40:21;3.75;;;1.80;;
75148;SDS011;63724;47.470;19.166;2023-05-10T00:43:28;2.33;;;1.45;;
75148;SDS011;63724;47.470;19.166;2023-05-10T00:46:31;2.97;;;1.92;;
75148;SDS011;63724;47.470;19.166;2023-05-10T00:49:34;3.88;;;2.67;;
75148;SDS011;63724;47.470;19.166;2023-05-10T00:52:37;5.43;;;1.90;;
75148;SDS011;63724;47.470;19.166;2023-05-10T00:55:39;6.30;;;1.92;;
75148;SDS011;63724;47.470;19.166;2023-05-10T00:58:42;1.98;;;1.80;;
75148;SDS011;63724;47.470;19.166;2023-05-10T01:01:45;2.38;;;1.63;;
75148;SDS011;63724;47.470;19.166;2023-05-10T01:04:47;2.85;;;1.92;;
75148;SDS011;63724;47.470;19.166;2023-05-10T01:07:50;2.80;;;1.60;;
75148;SDS011;63724;47.470;19.166;2023-05-10T01:10:53;5.97;;;1.85;;
75148;SDS011;63724;47.470;19.166;2023-05-10T01:13:56;4.70;;;1.85;;
75148;SDS011;63724;47.470;19.166;2023-05-10T01:16:59;4.55;;;2.03;;
75148;SDS011;63724;47.470;19.166;2023-05-10T01:20:02;4.10;;;2.20;;
75148;SDS011;63724;47.470;19.166;2023-05-10T01:29:51;4.63;;;1.88;;
75148;SDS011;63724;47.470;19.166;2023-05-10T01:33:26;2.25;;;1.98;;
75148;SDS011;63724;47.470;19.166;2023-05-10T01:36:31;2.35;;;2.10;;
75148;SDS011;63724;47.470;19.166;2023-05-10T01:39:40;3.80;;;1.90;;
75148;SDS011;63724;47.470;19.166;2023-05-10T01:42:51;3.20;;;2.05;;
75148;SDS011;63724;47.470;19.166;2023-05-10T01:46:01;5.75;;;2.28;;
75148;SDS011;63724;47.470;19.166;2023-05-10T01:49:15;4.93;;;2.08;;
75148;SDS011;63724;47.470;19.166;2023-05-10T01:52:42;2.75;;;1.85;;
75148;SDS011;63724;47.470;19.166;2023-05-10T01:55:48;2.33;;;2.00;;
75148;SDS011;63724;47.470;19.166;2023-05-10T01:58:52;4.35;;;2.35;;
75148;SDS011;63724;47.470;19.166;2023-05-10T02:01:55;6.05;;;2.40;;
75148;SDS011;63724;47.470;19.166;2023-05-10T02:04:59;4.10;;;2.05;;
75148;SDS011;63724;47.470;19.166;2023-05-10T02:08:02;2.75;;;2.05;;
75148;SDS011;63724;47.470;19.166;2023-05-10T02:11:08;3.90;;;2.17;;
75148;SDS011;63724;47.470;19.166;2023-05-10T02:14:13;2.40;;;2.08;;
75148;SDS011;63724;47.470;19.166;2023-05-10T02:17:17;3.03;;;2.28;;
75148;SDS011;63724;47.470;19.166;2023-05-10T02:20:20;2.72;;;2.22;;
75148;SDS011;63724;47.470;19.166;2023-05-10T02:23:23;5.60;;;1.80;;
75148;SDS011;63724;47.470;19.166;2023-05-10T02:26:25;5.27;;;2.20;;
75148;SDS011;63724;47.470;19.166;2023-05-10T02:29:28;2.97;;;2.08;;
75148;SDS011;63724;47.470;19.166;2023-05-10T02:32:30;2.42;;;2.00;;
75148;SDS011;63724;47.470;19.166;2023-05-10T02:35:33;2.95;;;2.05;;
75148;SDS011;63724;47.470;19.166;2023-05-10T02:38:36;3.90;;;1.63;;
75148;SDS011;63724;47.470;19.166;2023-05-10T02:41:40;2.73;;;1.77;;
75148;SDS011;63724;47.470;19.166;2023-05-10T02:44:44;2.63;;;1.80;;
75148;SDS011;63724;47.470;19.166;2023-05-10T02:47:49;3.35;;;1.73;;
75148;SDS011;63724;47.470;19.166;2023-05-10T02:50:52;3.28;;;2.10;;
75148;SDS011;63724;47.470;19.166;2023-05-10T02:53:55;2.85;;;1.98;;
75148;SDS011;63724;47.470;19.166;2023-05-10T02:56:58;2.73;;;2.00;;
75148;SDS011;63724;47.470;19.166;2023-05-10T03:00:03;2.92;;;2.03;;
75148;SDS011;63724;47.470;19.166;2023-05-10T03:03:06;4.15;;;1.95;;
75148;SDS011;63724;47.470;19.166;2023-05-10T03:06:08;2.88;;;2.35;;
75148;SDS011;63724;47.470;19.166;2023-05-10T03:09:11;3.45;;;2.50;;
75148;SDS011;63724;47.470;19.166;2023-05-10T03:19:14;2.80;;;2.00;;
75148;SDS011;63724;47.470;19.166;2023-05-10T03:22:30;2.90;;;2.10;;
75148;SDS011;63724;47.470;19.166;2023-05-10T03:25:34;4.07;;;2.20;;
75148;SDS011;63724;47.470;19.166;2023-05-10T03:28:39;5.13;;;2.30;;
75148;SDS011;63724;47.470;19.166;2023-05-10T03:31:42;2.92;;;2.05;;
75148;SDS011;63724;47.470;19.166;2023-05-10T03:34:45;4.97;;;2.15;;
75148;SDS011;63724;47.470;19.166;2023-05-10T03:37:47;3.35;;;2.15;;
75148;SDS011;63724;47.470;19.166;2023-05-10T03:40:50;5.00;;;3.10;;
75148;SDS011;63724;47.470;19.166;2023-05-10T03:43:53;2.80;;;2.33;;
75148;SDS011;63724;47.470;19.166;2023-05-10T03:46:55;5.47;;;2.45;;
75148;SDS011;63724;47.470;19.166;2023-05-10T03:49:59;4.07;;;2.50;;
75148;SDS011;63724;47.470;19.166;2023-05-10T03:53:01;4.95;;;2.65;;
75148;SDS011;63724;47.470;19.166;2023-05-10T03:56:04;4.28;;;2.63;;
75148;SDS011;63724;47.470;19.166;2023-05-10T03:59:06;3.70;;;2.43;;
75148;SDS011;63724;47.470;19.166;2023-05-10T04:02:10;5.82;;;3.00;;
75148;SDS011;63724;47.470;19.166;2023-05-10T04:05:13;3.45;;;2.70;;
75148;SDS011;63724;47.470;19.166;2023-05-10T04:08:15;3.63;;;2.67;;
75148;SDS011;63724;47.470;19.166;2023-05-10T04:11:18;2.60;;;2.13;;
75148;SDS011;63724;47.470;19.166;2023-05-10T04:14:23;4.23;;;2.97;;
75148;SDS011;63724;47.470;19.166;2023-05-10T04:17:26;4.07;;;2.50;;
75148;SDS011;63724;47.470;19.166;2023-05-10T04:20:28;2.78;;;2.47;;
75148;SDS011;63724;47.470;19.166;2023-05-10T04:23:31;4.28;;;2.78;;
75148;SDS011;63724;47.470;19.166;2023-05-10T04:26:33;4.57;;;2.80;;
75148;SDS011;63724;47.470;19.166;2023-05-10T04:29:35;3.43;;;2.77;;
75148;SDS011;63724;47.470;19.166;2023-05-10T04:32:38;5.35;;;2.95;;
75148;SDS011;63724;47.470;19.166;2023-05-10T04:35:40;4.68;;;2.70;;
75148;SDS011;63724;47.470;19.166;2023-05-10T04:38:42;5.32;;;3.30;;
75148;SDS011;63724;47.470;19.166;2023-05-10T04:41:45;6.10;;;2.90;;
75148;SDS011;63724;47.470;19.166;2023-05-10T04:44:47;6.23;;;2.50;;
75148;SDS011;63724;47.470;19.166;2023-05-10T04:47:50;3.30;;;2.78;;
75148;SDS011;63724;47.470;19.166;2023-05-10T04:50:52;6.40;;;3.15;;
75148;SDS011;63724;47.470;19.166;2023-05-10T04:53:54;5.30;;;2.78;;
75148;SDS011;63724;47.470;19.166;2023-05-10T04:57:07;3.08;;;2.40;;
75148;SDS011;63724;47.470;19.166;2023-05-10T05:00:09;7.00;;;2.87;;
75148;SDS011;63724;47.470;19.166;2023-05-10T05:03:12;5.35;;;2.47;;
75148;SDS011;63724;47.470;19.166;2023-05-10T05:06:15;4.07;;;2.53;;
75148;SDS011;63724;47.470;19.166;2023-05-10T05:09:17;3.85;;;2.58;;
75148;SDS011;63724;47.470;19.166;2023-05-10T05:12:19;4.80;;;3.03;;
75148;SDS011;63724;47.470;19.166;2023-05-10T05:15:22;4.50;;;2.70;;
75148;SDS011;63724;47.470;19.166;2023-05-10T05:18:24;8.32;;;3.00;;
75148;SDS011;63724;47.470;19.166;2023-05-10T05:21:26;6.47;;;2.90;;
75148;SDS011;63724;47.470;19.166;2023-05-10T05:24:29;6.43;;;2.95;;
75148;SDS011;63724;47.470;19.166;2023-05-10T05:27:31;3.65;;;3.05;;
75148;SDS011;63724;47.470;19.166;2023-05-10T05:30:34;3.97;;;3.00;;
75148;SDS011;63724;47.470;19.166;2023-05-10T05:33:36;6.40;;;3.70;;
75148;SDS011;63724;47.470;19.166;2023-05-10T05:36:39;4.93;;;3.25;;
75148;SDS011;63724;47.470;19.166;2023-05-10T05:39:45;6.78;;;3.33;;
75148;SDS011;63724;47.470;19.166;2023-05-10T05:42:47;6.10;;;4.35;;
75148;SDS011;63724;47.470;19.166;2023-05-10T05:45:49;10.90;;;3.20;;
75148;SDS011;63724;47.470;19.166;2023-05-10T05:48:54;9.20;;;3.67;;
75148;SDS011;63724;47.470;19.166;2023-05-10T05:51:59;7.10;;;3.28;;
75148;SDS011;63724;47.470;19.166;2023-05-10T05:55:05;4.57;;;3.05;;
75148;SDS011;63724;47.470;19.166;2023-05-10T05:58:08;4.70;;;3.08;;
75148;SDS011;63724;47.470;19.166;2023-05-10T06:01:10;7.30;;;3.30;;
75148;SDS011;63724;47.470;19.166;2023-05-10T06:04:12;5.18;;;2.85;;
75148;SDS011;63724;47.470;19.166;2023-05-10T06:07:16;4.97;;;3.20;;
75148;SDS011;63724;47.470;19.166;2023-05-10T06:10:19;6.07;;;3.30;;
75148;SDS011;63724;47.470;19.166;2023-05-10T06:13:21;5.32;;;3.50;;
75148;SDS011;63724;47.470;19.166;2023-05-10T06:16:23;4.83;;;3.40;;
75148;SDS011;63724;47.470;19.166;2023-05-10T06:19:26;4.97;;;3.67;;
75148;SDS011;63724;47.470;19.166;2023-05-10T06:22:29;4.97;;;3.35;;
75148;SDS011;63724;47.470;19.166;2023-05-10T06:25:31;3.67;;;2.83;;
75148;SDS011;63724;47.470;19.166;2023-05-10T06:28:33;4.80;;;2.80;;
75148;SDS011;63724;47.470;19.166;2023-05-10T06:31:36;3.50;;;2.80;;
75148;SDS011;63724;47.470;19.166;2023-05-10T06:34:38;4.30;;;2.95;;
75148;SDS011;63724;47.470;19.166;2023-05-10T06:37:40;4.85;;;3.20;;
75148;SDS011;63724;47.470;19.166;2023-05-10T06:40:43;3.75;;;2.70;;
75148;SDS011;63724;47.470;19.166;2023-05-10T06:43:45;4.72;;;3.10;;
75148;SDS011;63724;47.470;19.166;2023-05-10T06:46:48;5.13;;;2.73;;
75148;SDS011;63724;47.470;19.166;2023-05-10T06:49:50;3.47;;;3.00;;
75148;SDS011;63724;47.470;19.166;2023-05-10T06:52:53;3.47;;;2.90;;
75148;SDS011;63724;47.470;19.166;2023-05-10T06:55:55;7.05;;;4.40;;
75148;SDS011;63724;47.470;19.166;2023-05-10T06:58:57;4.10;;;2.97;;
75148;SDS011;63724;47.470;19.166;2023-05-10T07:01:59;3.63;;;3.20;;
75148;SDS011;63724;47.470;19.166;2023-05-10T07:05:02;3.90;;;2.90;;
75148;SDS011;63724;47.470;19.166;2023-05-10T07:08:06;8.45;;;3.50;;
75148;SDS011;63724;47.470;19.166;2023-05-10T07:11:09;4.00;;;3.20;;
75148;SDS011;63724;47.470;19.166;2023-05-10T07:14:12;3.88;;;2.97;;
75148;SDS011;63724;47.470;19.166;2023-05-10T07:17:14;4.30;;;3.13;;
75148;SDS011;63724;47.470;19.166;2023-05-10T07:20:17;7.05;;;3.05;;
75148;SDS011;63724;47.470;19.166;2023-05-10T07:23:22;5.72;;;3.22;;
75148;SDS011;63724;47.470;19.166;2023-05-10T07:26:24;6.28;;;3.03;;
75148;SDS011;63724;47.470;19.166;2023-05-10T07:29:27;10.23;;;3.25;;
75148;SDS011;63724;47.470;19.166;2023-05-10T07:32:30;3.77;;;2.30;;
75148;SDS011;63724;47.470;19.166;2023-05-10T07:35:33;3.13;;;2.45;;
75148;SDS011;63724;47.470;19.166;2023-05-10T07:38:35;4.28;;;2.50;;
75148;SDS011;63724;47.470;19.166;2023-05-10T07:41:41;4.82;;;2.50;;
75148;SDS011;63724;47.470;19.166;2023-05-10T07:44:44;3.42;;;2.80;;
75148;SDS011;63724;47.470;19.166;2023-05-10T07:47:47;4.87;;;2.40;;
75148;SDS011;63724;47.470;19.166;2023-05-10T07:50:49;4.25;;;2.13;;
75148;SDS011;63724;47.470;19.166;2023-05-10T07:53:52;4.75;;;2.22;;
75148;SDS011;63724;47.470;19.166;2023-05-10T07:56:54;4.93;;;3.15;;
75148;SDS011;63724;47.470;19.166;2023-05-10T07:59:57;4.15;;;2.38;;
75148;SDS011;63724;47.470;19.166;2023-05-10T08:02:59;8.13;;;3.00;;
75148;SDS011;63724;47.470;19.166;2023-05-10T08:06:02;4.20;;;2.40;;
75148;SDS011;63724;47.470;19.166;2023-05-10T08:09:05;9.10;;;2.35;;
75148;SDS011;63724;47.470;19.166;2023-05-10T08:12:08;3.13;;;2.25;;
75148;SDS011;63724;47.470;19.166;2023-05-10T08:15:10;6.30;;;2.42;;
75148;SDS011;63724;47.470;19.166;2023-05-10T08:18:12;3.93;;;2.70;;
75148;SDS011;63724;47.470;19.166;2023-05-10T08:21:15;3.72;;;2.30;;
75148;SDS011;63724;47.470;19.166;2023-05-10T08:24:18;5.30;;;2.40;;
75148;SDS011;63724;47.470;19.166;2023-05-10T08:27:20;3.50;;;2.30;;
75148;SDS011;63724;47.470;19.166;2023-05-10T08:30:22;6.90;;;2.58;;
75148;SDS011;63724;47.470;19.166;2023-05-10T08:33:25;8.33;;;2.73;;
75148;SDS011;63724;47.470;19.166;2023-05-10T08:36:27;8.82;;;2.90;;
75148;SDS011;63724;47.470;19.166;2023-05-10T08:39:33;2.92;;;2.20;;
75148;SDS011;63724;47.470;19.166;2023-05-10T08:42:36;3.13;;;1.98;;
75148;SDS011;63724;47.470;19.166;2023-05-10T08:45:43;8.88;;;2.72;;
75148;SDS011;63724;47.470;19.166;2023-05-10T08:48:47;5.10;;;3.13;;
75148;SDS011;63724;47.470;19.166;2023-05-10T08:51:52;5.25;;;2.75;;
75148;SDS011;63724;47.470;19.166;2023-05-10T08:54:56;6.95;;;2.55;;
75148;SDS011;63724;47.470;19.166;2023-05-10T08:57:59;3.38;;;2.30;;
75148;SDS011;63724;47.470;19.166;2023-05-10T09:01:02;4.60;;;2.40;;
75148;SDS011;63724;47.470;19.166;2023-05-10T09:04:04;5.23;;;2.63;;
75148;SDS011;63724;47.470;19.166;2023-05-10T09:07:07;4.47;;;2.40;;
75148;SDS011;63724;47.470;19.166;2023-05-10T09:10:11;3.75;;;2.20;;
75148;SDS011;63724;47.470;19.166;2023-05-10T09:13:14;4.47;;;2.53;;
75148;SDS011;63724;47.470;19.166;2023-05-10T09:16:17;3.50;;;2.40;;
75148;SDS011;63724;47.470;19.166;2023-05-10T09:19:23;2.73;;;2.10;;
75148;SDS011;63724;47.470;19.166;2023-05-10T09:22:25;5.25;;;3.05;;
75148;SDS011;63724;47.470;19.166;2023-05-10T09:25:28;4.03;;;2.20;;
75148;SDS011;63724;47.470;19.166;2023-05-10T09:28:31;4.07;;;2.45;;
75148;SDS011;63724;47.470;19.166;2023-05-10T09:34:53;4.37;;;2.17;;
75148;SDS011;63724;47.470;19.166;2023-05-10T09:37:56;4.13;;;2.45;;
75148;SDS011;63724;47.470;19.166;2023-05-10T09:40:59;2.35;;;2.10;;
75148;SDS011;63724;47.470;19.166;2023-05-10T09:44:04;2.30;;;1.98;;
75148;SDS011;63724;47.470;19.166;2023-05-10T09:47:07;3.63;;;2.35;;
75148;SDS011;63724;47.470;19.166;2023-05-10T09:50:09;2.93;;;2.10;;
75148;SDS011;63724;47.470;19.166;2023-05-10T09:53:14;3.83;;;2.38;;
75148;SDS011;63724;47.470;19.166;2023-05-10T09:56:35;4.90;;;2.05;;
75148;SDS011;63724;47.470;19.166;2023-05-10T09:59:42;3.55;;;2.10;;
75148;SDS011;63724;47.470;19.166;2023-05-10T10:02:45;6.32;;;2.40;;
75148;SDS011;63724;47.470;19.166;2023-05-10T10:05:48;2.47;;;2.00;;
75148;SDS011;63724;47.470;19.166;2023-05-10T10:08:51;4.65;;;1.92;;
75148;SDS011;63724;47.470;19.166;2023-05-10T10:11:57;4.32;;;1.80;;
75148;SDS011;63724;47.470;19.166;2023-05-10T10:15:00;3.20;;;1.92;;
75148;SDS011;63724;47.470;19.166;2023-05-10T10:18:03;2.83;;;1.80;;
75148;SDS011;63724;47.470;19.166;2023-05-10T10:21:07;3.70;;;1.83;;
75148;SDS011;63724;47.470;19.166;2023-05-10T10:24:10;2.25;;;1.40;;
75148;SDS011;63724;47.470;19.166;2023-05-10T10:30:53;8.07;;;1.73;;
75148;SDS011;63724;47.470;19.166;2023-05-10T10:34:01;3.28;;;1.30;;
75148;SDS011;63724;47.470;19.166;2023-05-10T10:37:06;7.80;;;2.50;;
75148;SDS011;63724;47.470;19.166;2023-05-10T10:40:25;3.55;;;1.92;;
75148;SDS011;63724;47.470;19.166;2023-05-10T10:43:28;4.80;;;1.67;;
75148;SDS011;63724;47.470;19.166;2023-05-10T10:46:31;3.25;;;1.40;;
75148;SDS011;63724;47.470;19.166;2023-05-10T10:52:45;6.17;;;1.33;;
75148;SDS011;63724;47.470;19.166;2023-05-10T10:55:51;6.10;;;1.60;;
75148;SDS011;63724;47.470;19.166;2023-05-10T10:59:08;1.85;;;1.38;;
75148;SDS011;63724;47.470;19.166;2023-05-10T11:02:31;1.38;;;1.20;;
75148;SDS011;63724;47.470;19.166;2023-05-10T11:05:57;1.30;;;1.20;;
75148;SDS011;63724;47.470;19.166;2023-05-10T11:09:10;2.37;;;1.80;;
75148;SDS011;63724;47.470;19.166;2023-05-10T11:12:13;2.05;;;1.30;;
75148;SDS011;63724;47.470;19.166;2023-05-10T11:15:15;6.38;;;1.35;;
75148;SDS011;63724;47.470;19.166;2023-05-10T11:21:31;2.50;;;1.23;;
75148;SDS011;63724;47.470;19.166;2023-05-10T11:24:34;5.50;;;1.33;;
75148;SDS011;63724;47.470;19.166;2023-05-10T11:27:37;7.35;;;1.55;;
75148;SDS011;63724;47.470;19.166;2023-05-10T11:30:40;5.57;;;1.65;;
75148;SDS011;63724;47.470;19.166;2023-05-10T11:36:52;1.70;;;1.20;;
75148;SDS011;63724;47.470;19.166;2023-05-10T11:39:56;2.53;;;1.40;;
75148;SDS011;63724;47.470;19.166;2023-05-10T11:42:58;1.65;;;1.27;;
75148;SDS011;63724;47.470;19.166;2023-05-10T11:46:01;2.53;;;1.23;;
75148;SDS011;63724;47.470;19.166;2023-05-10T11:49:03;4.47;;;1.40;;
75148;SDS011;63724;47.470;19.166;2023-05-10T11:52:08;1.80;;;1.30;;
75148;SDS011;63724;47.470;19.166;2023-05-10T11:55:12;1.90;;;0.93;;
75148;SDS011;63724;47.470;19.166;2023-05-10T11:58:15;6.82;;;1.52;;
75148;SDS011;63724;47.470;19.166;2023-05-10T12:01:17;4.65;;;1.42;;
75148;SDS011;63724;47.470;19.166;2023-05-10T12:04:19;2.35;;;1.00;;
75148;SDS011;63724;47.470;19.166;2023-05-10T12:07:22;7.35;;;1.30;;
75148;SDS011;63724;47.470;19.166;2023-05-10T12:10:25;4.03;;;1.53;;
75148;SDS011;63724;47.470;19.166;2023-05-10T12:13:28;2.00;;;1.60;;
75148;SDS011;63724;47.470;19.166;2023-05-10T12:16:31;4.75;;;1.73;;
75148;SDS011;63724;47.470;19.166;2023-05-10T12:19:37;1.50;;;1.33;;
75148;SDS011;63724;47.470;19.166;2023-05-10T12:22:40;1.83;;;1.20;;
75148;SDS011;63724;47.470;19.166;2023-05-10T12:25:42;8.83;;;1.60;;
75148;SDS011;63724;47.470;19.166;2023-05-10T12:28:45;5.35;;;1.50;;
75148;SDS011;63724;47.470;19.166;2023-05-10T12:31:51;12.90;;;5.70;;
75148;SDS011;63724;47.470;19.166;2023-05-10T12:34:54;4.07;;;2.25;;
75148;SDS011;63724;47.470;19.166;2023-05-10T12:37:57;4.22;;;1.70;;
75148;SDS011;63724;47.470;19.166;2023-05-10T12:41:03;2.73;;;1.20;;
75148;SDS011;63724;47.470;19.166;2023-05-10T12:44:07;1.30;;;1.00;;
75148;SDS011;63724;47.470;19.166;2023-05-10T12:47:09;4.72;;;1.60;;
75148;SDS011;63724;47.470;19.166;2023-05-10T12:50:12;5.75;;;1.20;;
75148;SDS011;63724;47.470;19.166;2023-05-10T12:53:15;2.33;;;1.40;;
75148;SDS011;63724;47.470;19.166;2023-05-10T12:56:19;4.07;;;1.40;;
75148;SDS011;63724;47.470;19.166;2023-05-10T12:59:22;1.30;;;0.98;;
75148;SDS011;63724;47.470;19.166;2023-05-10T13:02:24;3.05;;;0.98;;
75148;SDS011;63724;47.470;19.166;2023-05-10T13:05:27;2.55;;;1.20;;
75148;SDS011;63724;47.470;19.166;2023-05-10T13:08:29;2.55;;;1.10;;
75148;SDS011;63724;47.470;19.166;2023-05-10T13:11:35;7.73;;;1.13;;
75148;SDS011;63724;47.470;19.166;2023-05-10T13:14:38;2.85;;;0.80;;
75148;SDS011;63724;47.470;19.166;2023-05-10T13:17:42;3.35;;;1.00;;
75148;SDS011;63724;47.470;19.166;2023-05-10T13:20:44;10.70;;;1.30;;
75148;SDS011;63724;47.470;19.166;2023-05-10T13:23:47;3.67;;;1.25;;
75148;SDS011;63724;47.470;19.166;2023-05-10T13:26:49;1.93;;;1.10;;
75148;SDS011;63724;47.470;19.166;2023-05-10T13:29:51;2.53;;;1.20;;
75148;SDS011;63724;47.470;19.166;2023-05-10T13:32:57;2.17;;;1.00;;
75148;SDS011;63724;47.470;19.166;2023-05-10T13:36:01;2.17;;;0.90;;
75148;SDS011;63724;47.470;19.166;2023-05-10T13:39:04;1.60;;;1.10;;
75148;SDS011;63724;47.470;19.166;2023-05-10T13:42:07;1.90;;;1.17;;
75148;SDS011;63724;47.470;19.166;2023-05-10T13:45:09;2.70;;;0.93;;
75148;SDS011;63724;47.470;19.166;2023-05-10T13:48:14;5.45;;;0.98;;
75148;SDS011;63724;47.470;19.166;2023-05-10T13:51:16;4.13;;;0.80;;
75148;SDS011;63724;47.470;19.166;2023-05-10T13:54:19;5.82;;;0.95;;
75148;SDS011;63724;47.470;19.166;2023-05-10T13:57:22;2.53;;;0.90;;
75148;SDS011;63724;47.470;19.166;2023-05-10T14:00:24;1.60;;;0.80;;
75148;SDS011;63724;47.470;19.166;2023-05-10T14:03:28;1.42;;;0.90;;
75148;SDS011;63724;47.470;19.166;2023-05-10T14:06:31;1.35;;;0.70;;
75148;SDS011;63724;47.470;19.166;2023-05-10T14:09:33;1.98;;;0.82;;
75148;SDS011;63724;47.470;19.166;2023-05-10T14:12:36;1.10;;;0.70;;
75148;SDS011;63724;47.470;19.166;2023-05-10T14:20:26;2.90;;;1.13;;
75148;SDS011;63724;47.470;19.166;2023-05-10T14:23:28;9.02;;;1.10;;
75148;SDS011;63724;47.470;19.166;2023-05-10T14:26:30;1.17;;;0.68;;
75148;SDS011;63724;47.470;19.166;2023-05-10T14:29:33;4.50;;;0.90;;
75148;SDS011;63724;47.470;19.166;2023-05-10T14:32:35;0.90;;;0.80;;
75148;SDS011;63724;47.470;19.166;2023-05-10T14:35:38;5.60;;;1.15;;
75148;SDS011;63724;47.470;19.166;2023-05-10T14:38:41;3.92;;;0.70;;
75148;SDS011;63724;47.470;19.166;2023-05-10T14:41:43;3.00;;;1.02;;
75148;SDS011;63724;47.470;19.166;2023-05-10T14:44:47;1.37;;;0.97;;
75148;SDS011;63724;47.470;19.166;2023-05-10T14:47:49;3.63;;;0.90;;
75148;SDS011;63724;47.470;19.166;2023-05-10T14:50:52;2.05;;;0.93;;
75148;SDS011;63724;47.470;19.166;2023-05-10T14:53:54;1.80;;;1.30;;
75148;SDS011;63724;47.470;19.166;2023-05-10T14:56:57;14.02;;;1.85;;
75148;SDS011;63724;47.470;19.166;2023-05-10T15:00:00;0.60;;;0.50;;
75148;SDS011;63724;47.470;19.166;2023-05-10T15:03:03;5.38;;;0.80;;
75148;SDS011;63724;47.470;19.166;2023-05-10T15:06:07;1.38;;;0.80;;
75148;SDS011;63724;47.470;19.166;2023-05-10T15:09:10;4.13;;;0.68;;
75148;SDS011;63724;47.470;19.166;2023-05-10T15:12:12;0.52;;;0.50;;
75148;SDS011;63724;47.470;19.166;2023-05-10T15:15:14;1.70;;;0.40;;
75148;SDS011;63724;47.470;19.166;2023-05-10T15:18:17;2.10;;;0.70;;
75148;SDS011;63724;47.470;19.166;2023-05-10T15:21:20;3.72;;;0.82;;
75148;SDS011;63724;47.470;19.166;2023-05-10T15:24:22;1.55;;;0.55;;
75148;SDS011;63724;47.470;19.166;2023-05-10T15:27:25;3.15;;;0.80;;
75148;SDS011;63724;47.470;19.166;2023-05-10T15:30:27;1.80;;;0.60;;
75148;SDS011;63724;47.470;19.166;2023-05-10T15:33:30;3.67;;;0.85;;
75148;SDS011;63724;47.470;19.166;2023-05-10T15:36:33;4.53;;;0.75;;
75148;SDS011;63724;47.470;19.166;2023-05-10T15:39:35;1.73;;;0.73;;
75148;SDS011;63724;47.470;19.166;2023-05-10T15:42:37;0.63;;;0.60;;
75148;SDS011;63724;47.470;19.166;2023-05-10T15:45:40;1.63;;;0.77;;
75148;SDS011;63724;47.470;19.166;2023-05-10T15:48:42;1.05;;;0.80;;
75148;SDS011;63724;47.470;19.166;2023-05-10T15:51:44;1.63;;;0.80;;
75148;SDS011;63724;47.470;19.166;2023-05-10T15:54:47;1.60;;;0.80;;
75148;SDS011;63724;47.470;19.166;2023-05-10T15:57:49;2.20;;;0.75;;
75148;SDS011;63724;47.470;19.166;2023-05-10T16:00:52;3.87;;;0.97;;
75148;SDS011;63724;47.470;19.166;2023-05-10T16:03:54;3.05;;;0.88;;
75148;SDS011;63724;47.470;19.166;2023-05-10T16:06:56;3.17;;;1.00;;
75148;SDS011;63724;47.470;19.166;2023-05-10T16:09:59;3.05;;;1.13;;
75148;SDS011;63724;47.470;19.166;2023-05-10T16:13:04;5.85;;;0.95;;
75148;SDS011;63724;47.470;19.166;2023-05-10T16:16:07;1.00;;;0.90;;
75148;SDS011;63724;47.470;19.166;2023-05-10T16:19:10;1.75;;;0.93;;
75148;SDS011;63724;47.470;19.166;2023-05-10T16:22:12;1.20;;;1.10;;
75148;SDS011;63724;47.470;19.166;2023-05-10T16:25:15;2.22;;;0.90;;
75148;SDS011;63724;47.470;19.166;2023-05-10T16:28:18;2.22;;;1.23;;
75148;SDS011;63724;47.470;19.166;2023-05-10T16:31:21;3.70;;;1.20;;
75148;SDS011;63724;47.470;19.166;2023-05-10T16:34:24;2.65;;;1.42;;
75148;SDS011;63724;47.470;19.166;2023-05-10T16:37:26;3.50;;;1.10;;
75148;SDS011;63724;47.470;19.166;2023-05-10T16:40:29;3.83;;;0.90;;
75148;SDS011;63724;47.470;19.166;2023-05-10T16:43:32;1.85;;;1.17;;
75148;SDS011;63724;47.470;19.166;2023-05-10T16:46:34;2.83;;;1.20;;
75148;SDS011;63724;47.470;19.166;2023-05-10T16:49:37;2.80;;;1.60;;
75148;SDS011;63724;47.470;19.166;2023-05-10T16:52:39;3.13;;;1.38;;
75148;SDS011;63724;47.470;19.166;2023-05-10T16:55:42;2.08;;;1.23;;
75148;SDS011;63724;47.470;19.166;2023-05-10T16:58:45;2.85;;;0.95;;
75148;SDS011;63724;47.470;19.166;2023-05-10T17:01:48;1.60;;;1.27;;
75148;SDS011;63724;47.470;19.166;2023-05-10T17:04:50;5.45;;;1.27;;
75148;SDS011;63724;47.470;19.166;2023-05-10T17:07:55;4.50;;;1.65;;
75148;SDS011;63724;47.470;19.166;2023-05-10T17:11:01;3.22;;;1.50;;
75148;SDS011;63724;47.470;19.166;2023-05-10T17:14:04;1.83;;;1.20;;
75148;SDS011;63724;47.470;19.166;2023-05-10T17:17:07;2.70;;;1.40;;
75148;SDS011;63724;47.470;19.166;2023-05-10T17:20:09;1.88;;;1.45;;
75148;SDS011;63724;47.470;19.166;2023-05-10T17:23:12;4.00;;;1.02;;
75148;SDS011;63724;47.470;19.166;2023-05-10T17:26:14;1.70;;;1.08;;
75148;SDS011;63724;47.470;19.166;2023-05-10T17:29:17;1.70;;;1.20;;
75148;SDS011;63724;47.470;19.166;2023-05-10T17:32:20;3.13;;;1.10;;
75148;SDS011;63724;47.470;19.166;2023-05-10T17:35:22;9.77;;;1.55;;
75148;SDS011;63724;47.470;19.166;2023-05-10T17:38:24;2.17;;;1.42;;
75148;SDS011;63724;47.470;19.166;2023-05-10T17:41:27;6.32;;;1.30;;
75148;SDS011;63724;47.470;19.166;2023-05-10T17:44:29;2.15;;;1.00;;
75148;SDS011;63724;47.470;19.166;2023-05-10T17:47:32;4.30;;;1.50;;
75148;SDS011;63724;47.470;19.166;2023-05-10T17:50:35;4.60;;;1.20;;
75148;SDS011;63724;47.470;19.166;2023-05-10T17:53:42;2.55;;;1.15;;
75148;SDS011;63724;47.470;19.166;2023-05-10T17:56:45;2.83;;;1.00;;
75148;SDS011;63724;47.470;19.166;2023-05-10T17:59:47;4.28;;;1.10;;
75148;SDS011;63724;47.470;19.166;2023-05-10T18:02:49;3.73;;;0.90;;
75148;SDS011;63724;47.470;19.166;2023-05-10T18:05:52;0.98;;;0.90;;
75148;SDS011;63724;47.470;19.166;2023-05-10T18:08:56;3.22;;;1.23;;
75148;SDS011;63724;47.470;19.166;2023-05-10T18:12:00;1.63;;;1.15;;
75148;SDS011;63724;47.470;19.166;2023-05-10T18:15:03;2.22;;;1.20;;
75148;SDS011;63724;47.470;19.166;2023-05-10T18:18:06;2.33;;;1.27;;
75148;SDS011;63724;47.470;19.166;2023-05-10T18:21:08;2.60;;;1.08;;
75148;SDS011;63724;47.470;19.166;2023-05-10T18:24:11;2.47;;;1.10;;
75148;SDS011;63724;47.470;19.166;2023-05-10T18:27:13;2.78;;;1.20;;
75148;SDS011;63724;47.470;19.166;2023-05-10T18:30:16;2.28;;;0.90;;
75148;SDS011;63724;47.470;19.166;2023-05-10T18:33:19;4.17;;;1.43;;
75148;SDS011;63724;47.470;19.166;2023-05-10T18:36:21;1.05;;;0.82;;
75148;SDS011;63724;47.470;19.166;2023-05-10T18:39:24;5.45;;;1.30;;
75148;SDS011;63724;47.470;19.166;2023-05-10T18:42:26;2.30;;;1.23;;